JTC427 LIPZ-LOWI
Flight info
| Callsign | JTC427 |
|---|---|
| Flight time | 0h 45m |
| Altitude | 18000 |
| Route | ROKIB Z468 EKPEB/N0405F160 Z468 BRENO BRENO4B |
| Aircraft | C700/M-SBDGHM1RWXY/LB2 |
Departure
| Time | 2026-05-07 12:51 |
|---|---|
| Airport | Venice Marco Polo Airport (LIPZ) |
Arrival
| Time | 2026-05-07 13:36 |
|---|---|
| Airport | Innsbruck Airport (LOWI) |
| Time | Latitude | Longitude | Altitude | Speed | Heading |
|---|---|---|---|---|---|
| 2026-05-07 12:32 | 45.50778 | 12.34251 | 10 ft | 0 kts | 76° |
| 2026-05-07 12:42 | 45.50772 | 12.34221 | 10 ft | 4 kts | 74° |
| 2026-05-07 12:42 | 45.50764 | 12.34186 | 10 ft | 4 kts | 58° |
| 2026-05-07 12:42 | 45.50752 | 12.34167 | 10 ft | 4 kts | 340° |
| 2026-05-07 12:42 | 45.50746 | 12.34172 | 10 ft | 1 kts | 313° |
| 2026-05-07 12:43 | 45.50745 | 12.34173 | 10 ft | 0 kts | 313° |
| 2026-05-07 12:44 | 45.50747 | 12.34169 | 10 ft | 3 kts | 313° |
| 2026-05-07 12:44 | 45.50792 | 12.34130 | 10 ft | 10 kts | 7° |
| 2026-05-07 12:45 | 45.50858 | 12.34203 | 10 ft | 14 kts | 41° |
| 2026-05-07 12:45 | 45.50904 | 12.34323 | 10 ft | 16 kts | 124° |
| 2026-05-07 12:45 | 45.50822 | 12.34442 | 10 ft | 18 kts | 133° |
| 2026-05-07 12:45 | 45.50730 | 12.34585 | 10 ft | 21 kts | 134° |
| 2026-05-07 12:46 | 45.50648 | 12.34711 | 10 ft | 11 kts | 131° |
| 2026-05-07 12:46 | 45.50587 | 12.34719 | 10 ft | 11 kts | 207° |
| 2026-05-07 12:46 | 45.50521 | 12.34648 | 10 ft | 13 kts | 220° |
| 2026-05-07 12:46 | 45.50443 | 12.34554 | 10 ft | 16 kts | 219° |
| 2026-05-07 12:47 | 45.50349 | 12.34445 | 11 ft | 19 kts | 218° |
| 2026-05-07 12:47 | 45.50250 | 12.34312 | 10 ft | 21 kts | 229° |
| 2026-05-07 12:47 | 45.50157 | 12.34177 | 10 ft | 6 kts | 222° |
| 2026-05-07 12:47 | 45.50126 | 12.34138 | 10 ft | 0 kts | 221° |
| 2026-05-07 12:48 | 45.50110 | 12.34117 | 10 ft | 8 kts | 221° |
| 2026-05-07 12:48 | 45.50055 | 12.34048 | 10 ft | 12 kts | 222° |
| 2026-05-07 12:48 | 45.49977 | 12.33946 | 10 ft | 20 kts | 222° |
| 2026-05-07 12:49 | 45.49857 | 12.33796 | 10 ft | 24 kts | 221° |
| 2026-05-07 12:49 | 45.49724 | 12.33635 | 10 ft | 26 kts | 212° |
| 2026-05-07 12:49 | 45.49585 | 12.33515 | 11 ft | 15 kts | 187° |
| 2026-05-07 12:49 | 45.49507 | 12.33604 | 11 ft | 16 kts | 133° |
| 2026-05-07 12:50 | 45.49421 | 12.33731 | 9 ft | 20 kts | 135° |
| 2026-05-07 12:50 | 45.49409 | 12.33785 | 9 ft | 4 kts | 21° |
| 2026-05-07 12:50 | 45.49463 | 12.33838 | 9 ft | 21 kts | 41° |
| 2026-05-07 12:50 | 45.49812 | 12.34286 | 7 ft | 119 kts | 42° |
| 2026-05-07 12:51 | 45.50628 | 12.35293 | 485 ft | 178 kts | 43° |
| 2026-05-07 12:51 | 45.51606 | 12.36556 | 1707 ft | 199 kts | 44° |
| 2026-05-07 12:51 | 45.52589 | 12.38014 | 3039 ft | 208 kts | 48° |
| 2026-05-07 12:51 | 45.53276 | 12.39762 | 4362 ft | 194 kts | 72° |
| 2026-05-07 12:52 | 45.53513 | 12.41715 | 5634 ft | 209 kts | 92° |
| 2026-05-07 12:52 | 45.53414 | 12.43095 | 6572 ft | 214 kts | 102° |
| 2026-05-07 12:52 | 45.53103 | 12.45942 | 8511 ft | 225 kts | 100° |
| 2026-05-07 12:52 | 45.52880 | 12.48202 | 10076 ft | 231 kts | 100° |
| 2026-05-07 12:53 | 45.52475 | 12.50391 | 11508 ft | 233 kts | 123° |
| 2026-05-07 12:53 | 45.51376 | 12.51999 | 13031 ft | 224 kts | 157° |
| 2026-05-07 12:53 | 45.49920 | 12.52284 | 14501 ft | 208 kts | 197° |
| 2026-05-07 12:53 | 45.48652 | 12.51480 | 15925 ft | 197 kts | 222° |
| 2026-05-07 12:54 | 45.47845 | 12.49987 | 17332 ft | 188 kts | 248° |
| 2026-05-07 12:54 | 45.47572 | 12.48072 | 17964 ft | 222 kts | 272° |
| 2026-05-07 12:54 | 45.47965 | 12.45740 | 17989 ft | 261 kts | 284° |
| 2026-05-07 12:54 | 45.48493 | 12.43125 | 17990 ft | 297 kts | 282° |
| 2026-05-07 12:55 | 45.49013 | 12.40095 | 17979 ft | 332 kts | 281° |
| 2026-05-07 12:55 | 45.49555 | 12.36713 | 17986 ft | 368 kts | 281° |
| 2026-05-07 12:55 | 45.50169 | 12.33047 | 17975 ft | 390 kts | 282° |
| 2026-05-07 12:55 | 45.50820 | 12.29285 | 17976 ft | 392 kts | 282° |
| 2026-05-07 12:56 | 45.51460 | 12.25519 | 17973 ft | 390 kts | 281° |
| 2026-05-07 12:56 | 45.52082 | 12.21776 | 17970 ft | 388 kts | 281° |
| 2026-05-07 12:56 | 45.52815 | 12.18074 | 17968 ft | 388 kts | 285° |
| 2026-05-07 12:56 | 45.53633 | 12.14411 | 17978 ft | 390 kts | 286° |
| 2026-05-07 12:57 | 45.54429 | 12.10763 | 17976 ft | 392 kts | 285° |
| 2026-05-07 12:57 | 45.55231 | 12.07035 | 17975 ft | 393 kts | 285° |
| 2026-05-07 12:57 | 45.56224 | 12.03415 | 17951 ft | 396 kts | 298° |
| 2026-05-07 12:57 | 45.58084 | 12.00532 | 17959 ft | 401 kts | 320° |
| 2026-05-07 12:58 | 45.60439 | 11.98379 | 17966 ft | 402 kts | 327° |
| 2026-05-07 12:58 | 45.62863 | 11.96410 | 17970 ft | 401 kts | 327° |
| 2026-05-07 12:58 | 45.65258 | 11.94363 | 17970 ft | 401 kts | 325° |
| 2026-05-07 12:58 | 45.67606 | 11.92222 | 17971 ft | 402 kts | 324° |
| 2026-05-07 12:59 | 45.69944 | 11.90120 | 17969 ft | 403 kts | 325° |
| 2026-05-07 12:59 | 45.72344 | 11.88033 | 17984 ft | 404 kts | 326° |
| 2026-05-07 12:59 | 45.74743 | 11.85938 | 17984 ft | 403 kts | 325° |
| 2026-05-07 12:59 | 45.77120 | 11.83824 | 17986 ft | 403 kts | 326° |
| 2026-05-07 13:00 | 45.79503 | 11.81700 | 17986 ft | 403 kts | 326° |
| 2026-05-07 13:00 | 45.81882 | 11.79596 | 17986 ft | 402 kts | 326° |
| 2026-05-07 13:00 | 45.84259 | 11.77496 | 17985 ft | 401 kts | 326° |
| 2026-05-07 13:00 | 45.86620 | 11.75398 | 17986 ft | 401 kts | 326° |
| 2026-05-07 13:01 | 45.88989 | 11.73288 | 17982 ft | 401 kts | 326° |
| 2026-05-07 13:01 | 45.91364 | 11.71183 | 17979 ft | 401 kts | 327° |
| 2026-05-07 13:01 | 45.93886 | 11.69445 | 17973 ft | 405 kts | 337° |
| 2026-05-07 13:01 | 45.96595 | 11.68334 | 17976 ft | 408 kts | 346° |
| 2026-05-07 13:02 | 45.99341 | 11.67571 | 17990 ft | 408 kts | 346° |
| 2026-05-07 13:02 | 46.02126 | 11.66756 | 17989 ft | 409 kts | 346° |
| 2026-05-07 13:02 | 46.04915 | 11.65936 | 17985 ft | 409 kts | 346° |
| 2026-05-07 13:02 | 46.07702 | 11.65137 | 17993 ft | 410 kts | 346° |
| 2026-05-07 13:03 | 46.10503 | 11.64336 | 17989 ft | 410 kts | 346° |
| 2026-05-07 13:03 | 46.13290 | 11.63527 | 17986 ft | 408 kts | 346° |
| 2026-05-07 13:03 | 46.16066 | 11.62717 | 17984 ft | 407 kts | 346° |
| 2026-05-07 13:03 | 46.18834 | 11.61914 | 17976 ft | 407 kts | 346° |
| 2026-05-07 13:04 | 46.21611 | 11.61106 | 17982 ft | 407 kts | 346° |
| 2026-05-07 13:04 | 46.24355 | 11.60309 | 17981 ft | 407 kts | 346° |
| 2026-05-07 13:04 | 46.27133 | 11.59499 | 17980 ft | 408 kts | 346° |
| 2026-05-07 13:04 | 46.29910 | 11.58690 | 17981 ft | 408 kts | 346° |
| 2026-05-07 13:05 | 46.32686 | 11.57881 | 17988 ft | 407 kts | 346° |
| 2026-05-07 13:05 | 46.35476 | 11.57064 | 17985 ft | 410 kts | 346° |
| 2026-05-07 13:05 | 46.38269 | 11.56249 | 17989 ft | 408 kts | 346° |
| 2026-05-07 13:05 | 46.41042 | 11.55430 | 17950 ft | 408 kts | 346° |
| 2026-05-07 13:06 | 46.43829 | 11.54619 | 17952 ft | 408 kts | 346° |
| 2026-05-07 13:06 | 46.46577 | 11.53818 | 17955 ft | 408 kts | 346° |
| 2026-05-07 13:06 | 46.49356 | 11.52998 | 17953 ft | 409 kts | 346° |
| 2026-05-07 13:06 | 46.52145 | 11.52179 | 17948 ft | 409 kts | 346° |
| 2026-05-07 13:07 | 46.54935 | 11.51354 | 17938 ft | 408 kts | 346° |
| 2026-05-07 13:07 | 46.57711 | 11.50536 | 17942 ft | 407 kts | 347° |
| 2026-05-07 13:07 | 46.60474 | 11.49725 | 17563 ft | 401 kts | 346° |
| 2026-05-07 13:07 | 46.63144 | 11.48939 | 17037 ft | 386 kts | 347° |
| 2026-05-07 13:08 | 46.65735 | 11.48172 | 16542 ft | 375 kts | 346° |
| 2026-05-07 13:08 | 46.68233 | 11.47431 | 16059 ft | 370 kts | 346° |
| 2026-05-07 13:08 | 46.70762 | 11.46606 | 15961 ft | 380 kts | 345° |
| 2026-05-07 13:08 | 46.73410 | 11.45731 | 15956 ft | 398 kts | 346° |
| 2026-05-07 13:09 | 46.76123 | 11.44875 | 15954 ft | 399 kts | 346° |
| 2026-05-07 13:09 | 46.78829 | 11.43999 | 15970 ft | 399 kts | 345° |
| 2026-05-07 13:09 | 46.81535 | 11.43096 | 15967 ft | 398 kts | 345° |
| 2026-05-07 13:09 | 46.84182 | 11.42062 | 15084 ft | 388 kts | 334° |
| 2026-05-07 13:10 | 46.86064 | 11.39295 | 14585 ft | 361 kts | 291° |
| 2026-05-07 13:10 | 46.87237 | 11.36036 | 14353 ft | 364 kts | 279° |
| 2026-05-07 13:10 | 46.87849 | 11.32391 | 14465 ft | 375 kts | 272° |
| 2026-05-07 13:10 | 46.88139 | 11.28721 | 15328 ft | 367 kts | 257° |
| 2026-05-07 13:11 | 46.87890 | 11.24866 | 14886 ft | 389 kts | 258° |
| 2026-05-07 13:11 | 46.87798 | 11.20920 | 14372 ft | 386 kts | 264° |
| 2026-05-07 13:11 | 46.88073 | 11.17104 | 14427 ft | 377 kts | 267° |
| 2026-05-07 13:11 | 46.88469 | 11.13214 | 14010 ft | 387 kts | 273° |
| 2026-05-07 13:12 | 46.89123 | 11.09442 | 13532 ft | 381 kts | 279° |
| 2026-05-07 13:12 | 46.90011 | 11.05824 | 13131 ft | 374 kts | 284° |
| 2026-05-07 13:12 | 46.91119 | 11.02376 | 12687 ft | 376 kts | 289° |
| 2026-05-07 13:12 | 46.92457 | 10.99086 | 12505 ft | 375 kts | 296° |
| 2026-05-07 13:13 | 46.93966 | 10.96071 | 12767 ft | 377 kts | 297° |
| 2026-05-07 13:13 | 46.95496 | 10.92915 | 12992 ft | 379 kts | 294° |
| 2026-05-07 13:13 | 46.96863 | 10.89684 | 13732 ft | 376 kts | 288° |
| 2026-05-07 13:13 | 46.97973 | 10.86153 | 13954 ft | 392 kts | 284° |
| 2026-05-07 13:14 | 46.99151 | 10.82583 | 13309 ft | 381 kts | 291° |
| 2026-05-07 13:14 | 47.00600 | 10.79501 | 13213 ft | 370 kts | 296° |
| 2026-05-07 13:14 | 47.02229 | 10.76446 | 12761 ft | 381 kts | 304° |
| 2026-05-07 13:14 | 47.04117 | 10.73747 | 12165 ft | 377 kts | 310° |
| 2026-05-07 13:15 | 47.06149 | 10.71443 | 11693 ft | 374 kts | 316° |
| 2026-05-07 13:15 | 47.08371 | 10.69488 | 11514 ft | 367 kts | 327° |
| 2026-05-07 13:15 | 47.10879 | 10.68482 | 11543 ft | 387 kts | 342° |
| 2026-05-07 13:15 | 47.13531 | 10.68037 | 11274 ft | 368 kts | 341° |
| 2026-05-07 13:16 | 47.15953 | 10.67121 | 11476 ft | 359 kts | 324° |
| 2026-05-07 13:16 | 47.17972 | 10.65206 | 11485 ft | 332 kts | 308° |
| 2026-05-07 13:16 | 47.19696 | 10.63091 | 10884 ft | 313 kts | 306° |
| 2026-05-07 13:16 | 47.21380 | 10.61252 | 10154 ft | 291 kts | 313° |
| 2026-05-07 13:17 | 47.23053 | 10.59865 | 9515 ft | 268 kts | 320° |
| 2026-05-07 13:17 | 47.24715 | 10.58958 | 8934 ft | 242 kts | 330° |
| 2026-05-07 13:17 | 47.26318 | 10.58807 | 8624 ft | 224 kts | 13° |
| 2026-05-07 13:17 | 47.27572 | 10.59957 | 8623 ft | 207 kts | 43° |
| 2026-05-07 13:18 | 47.28507 | 10.61469 | 8706 ft | 195 kts | 57° |
| 2026-05-07 13:18 | 47.29034 | 10.63310 | 8815 ft | 198 kts | 76° |
| 2026-05-07 13:18 | 47.29149 | 10.65345 | 8960 ft | 202 kts | 90° |
| 2026-05-07 13:18 | 47.29137 | 10.67422 | 9096 ft | 206 kts | 90° |
| 2026-05-07 13:19 | 47.29192 | 10.69540 | 9225 ft | 208 kts | 86° |
| 2026-05-07 13:19 | 47.29309 | 10.71689 | 9349 ft | 212 kts | 84° |
| 2026-05-07 13:19 | 47.29429 | 10.73810 | 9498 ft | 212 kts | 86° |
| 2026-05-07 13:19 | 47.29530 | 10.75973 | 9627 ft | 210 kts | 86° |
| 2026-05-07 13:20 | 47.29641 | 10.78124 | 9760 ft | 213 kts | 87° |
| 2026-05-07 13:20 | 47.29749 | 10.80337 | 9896 ft | 219 kts | 86° |
| 2026-05-07 13:20 | 47.29862 | 10.82588 | 10027 ft | 222 kts | 86° |
| 2026-05-07 13:20 | 47.29972 | 10.84846 | 10154 ft | 221 kts | 86° |
| 2026-05-07 13:21 | 47.30088 | 10.87093 | 10264 ft | 219 kts | 86° |
| 2026-05-07 13:21 | 47.30198 | 10.89332 | 10375 ft | 220 kts | 86° |
| 2026-05-07 13:21 | 47.30307 | 10.91571 | 10500 ft | 219 kts | 86° |
| 2026-05-07 13:21 | 47.30415 | 10.93780 | 10619 ft | 220 kts | 86° |
| 2026-05-07 13:22 | 47.30524 | 10.96022 | 10746 ft | 219 kts | 86° |
| 2026-05-07 13:22 | 47.30633 | 10.98260 | 10866 ft | 220 kts | 86° |
| 2026-05-07 13:22 | 47.30743 | 11.00521 | 10986 ft | 222 kts | 86° |
| 2026-05-07 13:22 | 47.30851 | 11.02786 | 11114 ft | 222 kts | 86° |
| 2026-05-07 13:23 | 47.30959 | 11.05051 | 11232 ft | 222 kts | 86° |
| 2026-05-07 13:23 | 47.31071 | 11.07406 | 11374 ft | 243 kts | 86° |
| 2026-05-07 13:23 | 47.31197 | 11.09983 | 11548 ft | 263 kts | 85° |
| 2026-05-07 13:23 | 47.31493 | 11.12802 | 11723 ft | 294 kts | 78° |
| 2026-05-07 13:24 | 47.31945 | 11.15925 | 11887 ft | 330 kts | 78° |
| 2026-05-07 13:24 | 47.32370 | 11.19375 | 12036 ft | 362 kts | 81° |
| 2026-05-07 13:24 | 47.32770 | 11.23195 | 12194 ft | 389 kts | 81° |
| 2026-05-07 13:24 | 47.33208 | 11.27172 | 12330 ft | 398 kts | 81° |
| 2026-05-07 13:25 | 47.33681 | 11.31153 | 12459 ft | 391 kts | 80° |
| 2026-05-07 13:25 | 47.34145 | 11.35112 | 12593 ft | 393 kts | 80° |
| 2026-05-07 13:25 | 47.34591 | 11.39095 | 12717 ft | 395 kts | 81° |
| 2026-05-07 13:25 | 47.35036 | 11.43085 | 12848 ft | 395 kts | 81° |
| 2026-05-07 13:26 | 47.35491 | 11.47088 | 12978 ft | 397 kts | 81° |
| 2026-05-07 13:26 | 47.35947 | 11.51100 | 12765 ft | 395 kts | 81° |
| 2026-05-07 13:26 | 47.36382 | 11.54970 | 12273 ft | 379 kts | 81° |
| 2026-05-07 13:26 | 47.36793 | 11.58681 | 11783 ft | 357 kts | 81° |
| 2026-05-07 13:27 | 47.37183 | 11.62186 | 11327 ft | 337 kts | 80° |
| 2026-05-07 13:27 | 47.37559 | 11.65510 | 10897 ft | 320 kts | 81° |
| 2026-05-07 13:27 | 47.37548 | 11.68564 | 10523 ft | 280 kts | 106° |
| 2026-05-07 13:27 | 47.36565 | 11.70903 | 10097 ft | 280 kts | 141° |
| 2026-05-07 13:28 | 47.34759 | 11.72101 | 9832 ft | 292 kts | 173° |
| 2026-05-07 13:28 | 47.32777 | 11.71724 | 9542 ft | 288 kts | 204° |
| 2026-05-07 13:28 | 47.31221 | 11.70014 | 9283 ft | 283 kts | 229° |
| 2026-05-07 13:28 | 47.30339 | 11.67493 | 8980 ft | 279 kts | 256° |
| 2026-05-07 13:29 | 47.30153 | 11.64665 | 8731 ft | 277 kts | 268° |
| 2026-05-07 13:29 | 47.29987 | 11.61854 | 8476 ft | 275 kts | 260° |
| 2026-05-07 13:29 | 47.29656 | 11.59123 | 8220 ft | 265 kts | 261° |
| 2026-05-07 13:29 | 47.29337 | 11.56520 | 7940 ft | 246 kts | 258° |
| 2026-05-07 13:30 | 47.28963 | 11.54270 | 7568 ft | 222 kts | 256° |
| 2026-05-07 13:30 | 47.28583 | 11.52101 | 7263 ft | 215 kts | 257° |
| 2026-05-07 13:30 | 47.28234 | 11.49985 | 6946 ft | 211 kts | 257° |
| 2026-05-07 13:30 | 47.27861 | 11.47843 | 5942 ft | 233 kts | 256° |
| 2026-05-07 13:31 | 47.27341 | 11.45519 | 5234 ft | 240 kts | 249° |
| 2026-05-07 13:31 | 47.26609 | 11.43316 | 4635 ft | 239 kts | 242° |
| 2026-05-07 13:31 | 47.25774 | 11.41209 | 4120 ft | 237 kts | 240° |
| 2026-05-07 13:31 | 47.24948 | 11.39178 | 3855 ft | 226 kts | 242° |
| 2026-05-07 13:32 | 47.24372 | 11.37361 | 4045 ft | 160 kts | 248° |
| 2026-05-07 13:32 | 47.24015 | 11.35970 | 4175 ft | 143 kts | 253° |
| 2026-05-07 13:32 | 47.23760 | 11.34597 | 4218 ft | 133 kts | 257° |
| 2026-05-07 13:32 | 47.23564 | 11.33267 | 4116 ft | 134 kts | 261° |
| 2026-05-07 13:33 | 47.23461 | 11.31934 | 3978 ft | 133 kts | 266° |
| 2026-05-07 13:33 | 47.23405 | 11.30590 | 3854 ft | 130 kts | 268° |
| 2026-05-07 13:33 | 47.23388 | 11.29287 | 3789 ft | 126 kts | 272° |
| 2026-05-07 13:33 | 47.23466 | 11.27983 | 3687 ft | 125 kts | 287° |
| 2026-05-07 13:34 | 47.23910 | 11.26895 | 3664 ft | 127 kts | 316° |
| 2026-05-07 13:34 | 47.25533 | 11.26767 | 3366 ft | 129 kts | 43° |
| 2026-05-07 13:34 | 47.25820 | 11.27976 | 3062 ft | 134 kts | 92° |
| 2026-05-07 13:35 | 47.25659 | 11.29330 | 2452 ft | 131 kts | 99° |
| 2026-05-07 13:35 | 47.25625 | 11.30513 | 2183 ft | 109 kts | 85° |
| 2026-05-07 13:35 | 47.25729 | 11.31590 | 2092 ft | 106 kts | 81° |
| 2026-05-07 13:35 | 47.25848 | 11.32715 | 1985 ft | 116 kts | 82° |
| 2026-05-07 13:36 | 47.25964 | 11.33813 | 1901 ft | 94 kts | 82° |
| 2026-05-07 13:36 | 47.26040 | 11.34549 | 1894 ft | 53 kts | 81° |
| 2026-05-07 13:36 | 47.26081 | 11.34968 | 1898 ft | 33 kts | 82° |
| 2026-05-07 13:36 | 47.26100 | 11.35217 | 1898 ft | 9 kts | 103° |
| 2026-05-07 13:37 | 47.26044 | 11.35263 | 1895 ft | 11 kts | 171° |
| 2026-05-07 13:37 | 47.25969 | 11.35280 | 1898 ft | 9 kts | 171° |
| 2026-05-07 13:37 | 47.25965 | 11.35280 | 1898 ft | 0 kts | 171° |
| 2026-05-07 13:37 | 47.25939 | 11.35287 | 1896 ft | 9 kts | 170° |
| 2026-05-07 13:38 | 47.25902 | 11.35258 | 1894 ft | 7 kts | 250° |
| 2026-05-07 13:38 | 47.25892 | 11.35168 | 1892 ft | 11 kts | 261° |
| 2026-05-07 13:38 | 47.25877 | 11.35036 | 1894 ft | 15 kts | 261° |
| 2026-05-07 13:38 | 47.25858 | 11.34860 | 1898 ft | 19 kts | 261° |
| 2026-05-07 13:39 | 47.25844 | 11.34728 | 1891 ft | 14 kts | 261° |
| 2026-05-07 13:39 | 47.25828 | 11.34580 | 1898 ft | 12 kts | 261° |
| 2026-05-07 13:39 | 47.25771 | 11.34535 | 1896 ft | 8 kts | 165° |
| 2026-05-07 13:39 | 47.25752 | 11.34557 | 1897 ft | 0 kts | 99° |
| 2026-05-07 13:42 | 47.25750 | 11.34614 | 1898 ft | 7 kts | 79° |
| 2026-05-07 13:42 | 47.25756 | 11.34663 | 1898 ft | 7 kts | 100° |
| 2026-05-07 13:43 | 47.25750 | 11.34659 | 1898 ft | 0 kts | 44° |